createdAt,value
2022-09-02T00:01:43.702Z,17.42
2022-09-02T00:04:17.500Z,17.36
2022-09-02T00:06:45.856Z,17.33
2022-09-02T00:09:14.618Z,17.30
2022-09-02T00:11:43.054Z,17.22
2022-09-02T00:14:14.938Z,17.18
2022-09-02T00:16:52.183Z,17.19
2022-09-02T00:19:21.701Z,17.10
2022-09-02T00:21:49.337Z,17.09
2022-09-02T00:24:17.178Z,17.06
2022-09-02T00:26:44.713Z,17.01
2022-09-02T00:29:13.194Z,16.95
2022-09-02T00:31:40.570Z,16.95
2022-09-02T00:34:08.283Z,16.93
2022-09-02T00:36:35.327Z,16.85
2022-09-02T00:39:04.134Z,16.89
2022-09-02T00:41:32.610Z,16.93
2022-09-02T00:44:14.396Z,16.93
2022-09-02T00:46:48.646Z,16.96
2022-09-02T00:49:28.709Z,16.93
2022-09-02T00:52:04.240Z,16.92
2022-09-02T00:54:33.822Z,16.88
2022-09-02T00:57:02.651Z,16.87
2022-09-02T00:59:58.359Z,16.87
2022-09-02T01:02:26.393Z,16.85
2022-09-02T01:04:57.069Z,16.79
2022-09-02T01:07:26.199Z,16.80
2022-09-02T01:09:55.718Z,16.76
2022-09-02T01:12:30.165Z,16.76
2022-09-02T01:14:58.230Z,16.71
2022-09-02T01:17:26.286Z,16.69
2022-09-02T01:19:57.362Z,16.65
2022-09-02T01:22:26.874Z,16.67
2022-09-02T01:24:55.079Z,16.66
2022-09-02T01:27:23.333Z,16.69
2022-09-02T01:29:58.022Z,16.66
2022-09-02T01:32:26.442Z,16.67
2022-09-02T01:34:54.118Z,16.67
2022-09-02T01:37:21.866Z,16.67
2022-09-02T01:39:49.788Z,16.61
2022-09-02T01:42:16.622Z,16.57
2022-09-02T01:44:46.085Z,16.53
2022-09-02T01:47:16.586Z,16.52
2022-09-02T01:49:46.563Z,16.51
2022-09-02T01:52:14.286Z,16.40
2022-09-02T01:54:41.452Z,16.41
2022-09-02T01:57:08.977Z,16.48
2022-09-02T01:59:35.886Z,16.47
2022-09-02T02:02:03.835Z,16.48
2022-09-02T02:04:32.555Z,16.34
2022-09-02T02:06:59.798Z,16.20
2022-09-02T02:09:27.597Z,16.19
2022-09-02T02:11:54.626Z,16.16
2022-09-02T02:14:22.558Z,16.17
2022-09-02T02:16:50.518Z,16.20
2022-09-02T02:19:18.125Z,16.20
2022-09-02T02:21:44.821Z,16.14
2022-09-02T02:24:12.013Z,16.11
2022-09-02T02:26:38.777Z,16.19
2022-09-02T02:29:07.673Z,16.20
2022-09-02T02:31:35.996Z,16.20
2022-09-02T02:34:04.235Z,16.23
2022-09-02T02:36:32.886Z,16.19
2022-09-02T02:39:01.541Z,16.20
2022-09-02T02:41:30.590Z,16.15
2022-09-02T02:43:57.577Z,16.15
2022-09-02T02:46:25.367Z,16.17
2022-09-02T02:48:53.555Z,16.17
2022-09-02T02:51:20.431Z,16.14
2022-09-02T02:53:48.650Z,16.02
2022-09-02T02:56:15.473Z,16.03
2022-09-02T02:58:42.456Z,16.05
2022-09-02T03:01:09.678Z,16.07
2022-09-02T03:03:36.474Z,15.98
2022-09-02T03:06:04.433Z,15.92
2022-09-02T03:08:32.094Z,15.93
2022-09-02T03:10:59.983Z,15.96
2022-09-02T03:13:29.923Z,16.02
2022-09-02T03:16:01.044Z,15.96
2022-09-02T03:18:27.863Z,15.91
2022-09-02T03:20:56.139Z,15.85
2022-09-02T03:23:23.613Z,15.79
2022-09-02T03:25:50.719Z,15.75
2022-09-02T03:28:27.540Z,15.71
2022-09-02T03:30:54.976Z,15.63
2022-09-02T03:33:23.396Z,15.66
2022-09-02T03:35:51.563Z,15.70
2022-09-02T03:38:18.842Z,15.67
2022-09-02T03:40:45.809Z,15.69
2022-09-02T03:43:12.590Z,15.70
2022-09-02T03:45:41.858Z,15.68
2022-09-02T03:48:12.829Z,15.68
2022-09-02T03:50:42.428Z,15.69
2022-09-02T03:53:18.099Z,15.69
2022-09-02T03:55:50.838Z,15.66
2022-09-02T03:58:19.884Z,15.65
2022-09-02T04:00:53.401Z,15.62
2022-09-02T04:03:22.693Z,15.64
2022-09-02T04:05:52.304Z,15.58
2022-09-02T04:08:20.249Z,15.59
2022-09-02T04:10:47.913Z,15.55
2022-09-02T04:13:14.725Z,15.51
2022-09-02T04:15:48.379Z,15.44
2022-09-02T04:18:17.805Z,15.41
2022-09-02T04:20:45.278Z,15.38
2022-09-02T04:23:12.607Z,15.38
2022-09-02T04:25:43.541Z,15.38
2022-09-02T04:28:13.113Z,15.42
2022-09-02T04:30:41.110Z,15.42
2022-09-02T04:33:07.962Z,15.43
2022-09-02T04:35:36.053Z,15.40
2022-09-02T04:38:03.208Z,15.37
2022-09-02T04:40:31.531Z,15.35
2022-09-02T04:42:58.829Z,15.32
2022-09-02T04:45:29.739Z,15.33
2022-09-02T04:47:58.049Z,15.36
2022-09-02T04:50:26.182Z,15.35
2022-09-02T04:53:00.275Z,15.36
2022-09-02T04:55:30.892Z,15.30
2022-09-02T04:57:58.825Z,15.26
2022-09-02T05:00:26.801Z,15.29
2022-09-02T05:02:54.606Z,15.27
2022-09-02T05:05:23.525Z,15.24
2022-09-02T05:08:00.503Z,15.27
2022-09-02T05:10:32.916Z,15.31
2022-09-02T05:13:00.621Z,15.26
2022-09-02T05:15:28.877Z,15.26
2022-09-02T05:17:59.250Z,15.28
2022-09-02T05:20:27.941Z,15.36
2022-09-02T05:23:09.387Z,15.39
2022-09-02T05:25:44.223Z,15.42
2022-09-02T05:28:23.011Z,15.39
2022-09-02T05:30:51.169Z,15.44
2022-09-02T05:33:18.338Z,15.53
2022-09-02T05:35:50.035Z,15.59
2022-09-02T05:38:18.049Z,15.69
2022-09-02T05:40:46.896Z,15.80
2022-09-02T05:43:14.254Z,15.88
2022-09-02T05:45:41.699Z,15.96
2022-09-02T05:48:28.548Z,16.07
2022-09-02T05:50:57.690Z,16.16
2022-09-02T05:53:27.022Z,16.29
2022-09-02T05:55:53.985Z,16.41
2022-09-02T05:58:21.235Z,16.52
2022-09-02T06:00:48.629Z,16.60
2022-09-02T06:03:18.401Z,16.69
2022-09-02T06:05:56.535Z,16.79
2022-09-02T06:08:24.459Z,16.80
2022-09-02T06:10:51.829Z,16.84
2022-09-02T06:13:22.778Z,16.91
2022-09-02T06:15:52.029Z,17.00
2022-09-02T06:18:21.948Z,17.09
2022-09-02T06:20:51.354Z,17.21
2022-09-02T06:23:18.591Z,17.25
2022-09-02T06:25:47.794Z,17.28
2022-09-02T06:28:15.687Z,17.40
2022-09-02T06:30:45.902Z,17.49
2022-09-02T06:33:13.090Z,17.54
2022-09-02T06:35:45.487Z,17.67
2022-09-02T06:38:15.503Z,17.79
2022-09-02T06:40:52.003Z,17.86
2022-09-02T06:43:24.271Z,17.94
2022-09-02T06:46:06.742Z,18.09
2022-09-02T06:48:35.323Z,18.19
2022-09-02T06:51:02.093Z,18.27
2022-09-02T06:53:28.917Z,18.37
2022-09-02T06:55:55.920Z,18.49
2022-09-02T06:58:22.737Z,18.59
2022-09-02T07:00:49.566Z,18.60
2022-09-02T07:03:35.059Z,18.70
2022-09-02T07:06:10.949Z,18.81
2022-09-02T07:08:43.528Z,18.89
2022-09-02T07:11:22.157Z,18.95
2022-09-02T07:13:51.285Z,19.02
2022-09-02T07:16:26.856Z,19.10
2022-09-02T07:18:56.895Z,19.21
2022-09-02T07:21:24.669Z,19.28
2022-09-02T07:23:53.045Z,19.42
2022-09-02T07:26:19.863Z,19.50
2022-09-02T07:28:47.122Z,19.57
2022-09-02T07:31:15.959Z,19.66
2022-09-02T07:33:45.074Z,19.72
2022-09-02T07:36:16.981Z,19.82
2022-09-02T07:38:44.407Z,19.93
2022-09-02T07:41:13.233Z,20.03
2022-09-02T07:43:41.371Z,20.18
2022-09-02T07:46:09.464Z,20.26
2022-09-02T07:48:36.953Z,20.31
2022-09-02T07:51:04.589Z,20.39
2022-09-02T07:53:32.436Z,20.49
2022-09-02T07:56:00.254Z,20.60
2022-09-02T07:58:29.081Z,20.71
2022-09-02T08:01:00.781Z,20.82
2022-09-02T08:03:27.665Z,20.93
2022-09-02T08:05:57.562Z,21.04
2022-09-02T08:08:26.266Z,21.12
2022-09-02T08:10:54.336Z,21.21
2022-09-02T08:13:22.017Z,21.28
2022-09-02T08:15:54.620Z,21.34
2022-09-02T08:18:22.523Z,21.43
2022-09-02T08:20:49.712Z,21.52
2022-09-02T08:23:19.627Z,21.61
2022-09-02T08:26:03.491Z,21.72
2022-09-02T08:28:32.089Z,21.81
2022-09-02T08:30:59.393Z,21.90
2022-09-02T08:33:26.536Z,21.98
2022-09-02T08:35:53.305Z,22.07
2022-09-02T08:38:22.104Z,22.18
2022-09-02T08:40:49.811Z,22.23
2022-09-02T08:43:40.346Z,22.32
2022-09-02T08:46:11.287Z,22.39
2022-09-02T08:48:41.419Z,22.48
2022-09-02T08:51:19.085Z,22.60
2022-09-02T08:53:59.016Z,22.70
2022-09-02T08:56:28.157Z,22.77
2022-09-02T08:58:58.562Z,22.83
2022-09-02T09:01:31.325Z,22.86
2022-09-02T09:04:11.686Z,22.92
2022-09-02T09:06:56.978Z,23.08
2022-09-02T09:09:54.378Z,23.12
2022-09-02T09:12:42.686Z,23.16
2022-09-02T09:15:16.544Z,23.22
2022-09-02T09:17:47.799Z,23.25
2022-09-02T09:20:19.648Z,23.40
2022-09-02T09:22:48.676Z,23.38
2022-09-02T09:25:16.673Z,23.47
2022-09-02T09:27:46.203Z,23.56
2022-09-02T09:30:15.469Z,23.56
2022-09-02T09:33:00.354Z,23.65
2022-09-02T09:35:29.062Z,23.72
2022-09-02T09:37:56.385Z,23.79
2022-09-02T09:40:33.480Z,23.76
2022-09-02T09:43:05.386Z,23.79
2022-09-02T09:45:41.941Z,23.88
2022-09-02T09:48:25.710Z,23.98
2022-09-02T09:50:55.374Z,24.11
2022-09-02T09:53:30.781Z,24.17
2022-09-02T09:56:06.622Z,24.21
2022-09-02T09:58:44.458Z,24.28
2022-09-02T10:01:34.523Z,24.37
2022-09-02T10:04:41.926Z,24.42
2022-09-02T10:07:11.721Z,24.50
2022-09-02T10:09:38.440Z,24.57
2022-09-02T10:12:08.018Z,24.64
2022-09-02T10:14:38.709Z,24.72
2022-09-02T10:17:16.485Z,24.77
2022-09-02T10:19:54.270Z,24.82
2022-09-02T10:22:59.726Z,24.80
2022-09-02T10:25:36.127Z,24.83
2022-09-02T10:28:21.355Z,24.97
2022-09-02T10:31:17.915Z,25.07
2022-09-02T10:34:06.519Z,25.18
2022-09-02T10:36:57.211Z,25.17
2022-09-02T10:39:39.954Z,25.17
2022-09-02T10:42:19.267Z,25.19
2022-09-02T10:45:12.227Z,25.28
2022-09-02T10:47:40.441Z,25.30
2022-09-02T10:50:26.922Z,25.36
2022-09-02T10:53:33.111Z,25.41
2022-09-02T10:56:08.876Z,25.46
2022-09-02T11:01:33.651Z,25.57
2022-09-02T11:04:22.635Z,25.68
2022-09-02T11:07:02.479Z,25.80
2022-09-02T11:09:37.213Z,25.89
2022-09-02T11:12:07.706Z,25.95
2022-09-02T11:15:04.370Z,25.97
2022-09-02T11:17:49.466Z,25.99
2022-09-02T11:20:27.074Z,26.06
2022-09-02T11:23:02.534Z,26.10
2022-09-02T11:25:38.615Z,26.18
2022-09-02T11:28:23.887Z,26.27
2022-09-02T11:31:07.893Z,26.30
2022-09-02T11:36:41.194Z,26.48
2022-09-02T11:39:25.790Z,26.55
2022-09-02T11:42:18.226Z,26.71
2022-09-02T11:44:52.167Z,26.76
2022-09-02T11:47:25.773Z,26.76
2022-09-02T11:49:52.632Z,26.80
2022-09-02T11:52:59.183Z,26.87
2022-09-02T11:55:32.926Z,26.96
2022-09-02T11:58:01.060Z,27.02
2022-09-02T12:00:58.517Z,26.98
2022-09-02T12:03:46.941Z,26.97
2022-09-02T12:06:29.056Z,27.01
2022-09-02T12:08:58.011Z,27.03
2022-09-02T12:11:55.149Z,27.11
2022-09-02T12:14:24.899Z,27.19
2022-09-02T12:17:12.503Z,27.22
2022-09-02T12:19:42.398Z,27.32
2022-09-02T12:22:21.755Z,27.42
2022-09-02T12:24:54.919Z,27.51
2022-09-02T12:31:41.127Z,27.34
2022-09-02T12:34:25.920Z,26.96
2022-09-02T12:36:57.411Z,26.73
2022-09-02T12:39:30.796Z,26.56
2022-09-02T12:42:25.997Z,26.45
2022-09-02T12:45:13.115Z,26.47
2022-09-02T12:48:44.855Z,26.75
2022-09-02T12:52:11.606Z,26.74
2022-09-02T12:54:49.318Z,26.70
2022-09-02T13:00:54.979Z,26.80
2022-09-02T13:03:32.568Z,27.15
2022-09-02T13:06:18.273Z,27.48
2022-09-02T13:09:00.185Z,27.74
2022-09-02T13:12:02.070Z,27.92
2022-09-02T13:14:47.514Z,28.20
2022-09-02T13:17:36.936Z,28.28
2022-09-02T13:20:20.190Z,28.41
2022-09-02T13:22:46.918Z,28.31
2022-09-02T13:25:41.756Z,28.32
2022-09-02T13:28:29.323Z,28.40
2022-09-02T13:31:26.525Z,28.51
2022-09-02T13:34:08.228Z,28.55
2022-09-02T13:36:46.879Z,28.46
2022-09-02T13:39:18.329Z,28.55
2022-09-02T13:41:46.913Z,28.66
2022-09-02T13:44:23.292Z,28.74
2022-09-02T13:47:17.816Z,28.82
2022-09-02T13:49:46.966Z,28.94
2022-09-02T13:52:17.705Z,29.03
2022-09-02T13:54:47.740Z,29.10
2022-09-02T13:57:19.534Z,29.12
2022-09-02T13:59:52.767Z,29.13
2022-09-02T14:02:35.739Z,29.16
2022-09-02T14:05:06.685Z,29.23
2022-09-02T14:07:38.157Z,29.26
2022-09-02T14:10:08.209Z,29.30
2022-09-02T14:12:36.894Z,29.38
2022-09-02T14:15:06.539Z,29.51
2022-09-02T14:17:35.290Z,29.66
2022-09-02T14:20:28.121Z,29.79
2022-09-02T14:22:58.436Z,29.92
2022-09-02T14:25:36.490Z,30.02
2022-09-02T14:28:11.332Z,30.12
2022-09-02T14:30:40.118Z,30.10
2022-09-02T14:33:36.267Z,30.03
2022-09-02T14:36:06.867Z,29.85
2022-09-02T14:38:37.628Z,29.67
2022-09-02T14:41:27.448Z,29.45
2022-09-02T14:43:59.606Z,29.28
2022-09-02T14:46:29.328Z,29.10
2022-09-02T14:49:10.637Z,28.87
2022-09-02T14:51:44.219Z,28.61
2022-09-02T14:54:11.728Z,28.45
2022-09-02T14:56:46.834Z,28.31
2022-09-02T14:59:13.598Z,28.24
2022-09-02T15:01:41.709Z,28.11
2022-09-02T15:04:09.530Z,27.94
2022-09-02T15:06:36.503Z,27.77
2022-09-02T15:09:04.318Z,27.59
2022-09-02T15:11:31.360Z,27.45
2022-09-02T15:13:58.143Z,27.26
2022-09-02T15:16:25.452Z,27.10
2022-09-02T15:18:52.381Z,26.95
2022-09-02T15:21:20.491Z,26.83
2022-09-02T15:23:51.078Z,26.75
2022-09-02T15:26:18.236Z,26.66
2022-09-02T15:28:45.568Z,26.53
2022-09-02T15:31:12.818Z,26.39
2022-09-02T15:33:41.481Z,26.19
2022-09-02T15:36:10.689Z,26.04
2022-09-02T15:38:37.980Z,25.88
2022-09-02T15:41:29.791Z,25.69
2022-09-02T15:43:59.663Z,25.43
2022-09-02T15:46:28.441Z,24.91
2022-09-02T15:49:00.321Z,24.63
2022-09-02T15:51:29.160Z,24.50
2022-09-02T15:54:04.791Z,24.42
2022-09-02T15:56:32.897Z,24.36
2022-09-02T15:59:04.866Z,24.32
2022-09-02T16:01:34.391Z,24.23
2022-09-02T16:04:02.448Z,24.14
2022-09-02T16:06:30.592Z,24.02
2022-09-02T16:08:57.714Z,23.90
2022-09-02T16:11:24.575Z,23.75
2022-09-02T16:13:51.980Z,23.65
2022-09-02T16:16:22.506Z,23.55
2022-09-02T16:18:51.725Z,23.38
2022-09-02T16:21:20.394Z,23.29
2022-09-02T16:23:49.262Z,23.15
2022-09-02T16:26:23.897Z,22.92
2022-09-02T16:28:52.931Z,22.90
2022-09-02T16:31:20.786Z,22.95
2022-09-02T16:33:58.006Z,23.03
2022-09-02T16:36:31.916Z,23.02
2022-09-02T16:39:01.155Z,22.95
2022-09-02T16:41:29.040Z,22.90
2022-09-02T16:43:59.968Z,22.87
2022-09-02T16:46:28.250Z,22.80
2022-09-02T16:48:58.431Z,22.79
2022-09-02T16:51:25.801Z,22.83
2022-09-02T16:53:59.874Z,22.73
2022-09-02T16:56:27.245Z,22.63
2022-09-02T16:58:54.662Z,22.55
2022-09-02T17:01:22.515Z,22.60
2022-09-02T17:03:50.628Z,22.61
2022-09-02T17:06:18.232Z,22.65
2022-09-02T17:08:44.949Z,22.59
2022-09-02T17:11:20.709Z,22.44
2022-09-02T17:13:55.905Z,22.41
2022-09-02T17:16:24.574Z,22.36
2022-09-02T17:18:51.302Z,22.38
2022-09-02T17:21:27.798Z,22.42
2022-09-02T17:23:55.114Z,22.43
2022-09-02T17:26:23.694Z,22.46
2022-09-02T17:28:53.259Z,22.49
2022-09-02T17:31:28.213Z,22.35
2022-09-02T17:33:56.869Z,22.13
2022-09-02T17:36:26.021Z,22.05
2022-09-02T17:38:57.174Z,22.06
2022-09-02T17:41:43.727Z,22.05
2022-09-02T17:44:11.719Z,22.11
2022-09-02T17:46:38.525Z,22.16
2022-09-02T17:49:16.718Z,22.18
2022-09-02T17:51:44.590Z,22.09
2022-09-02T17:54:12.550Z,22.07
2022-09-02T17:56:48.801Z,22.06
2022-09-02T17:59:37.936Z,22.04
2022-09-02T18:02:29.602Z,21.94
2022-09-02T18:05:07.686Z,21.93
2022-09-02T18:07:53.717Z,21.87
2022-09-02T18:10:20.555Z,21.82
2022-09-02T18:12:48.081Z,21.83
2022-09-02T18:15:17.925Z,21.83
2022-09-02T18:17:49.778Z,21.80
2022-09-02T18:20:19.602Z,21.79
2022-09-02T18:22:49.342Z,21.76
2022-09-02T18:25:38.144Z,21.73
2022-09-02T18:28:34.241Z,21.66
2022-09-02T18:31:15.701Z,21.63
2022-09-02T18:34:11.834Z,21.61
2022-09-02T18:37:06.262Z,21.60
2022-09-02T18:40:03.247Z,21.56
2022-09-02T18:42:50.566Z,21.51
2022-09-02T18:45:52.032Z,21.45
2022-09-02T18:48:39.091Z,21.42
2022-09-02T18:51:30.535Z,21.37
2022-09-02T18:54:04.958Z,21.34
2022-09-02T18:56:33.762Z,21.30
2022-09-02T18:59:10.810Z,21.28
2022-09-02T19:01:44.306Z,21.22
2022-09-02T19:04:11.182Z,21.15
2022-09-02T19:06:38.126Z,21.12
2022-09-02T19:09:12.630Z,21.10
2022-09-02T19:11:40.130Z,21.04
2022-09-02T19:14:26.482Z,20.93
2022-09-02T19:16:54.493Z,20.85
2022-09-02T19:19:21.263Z,20.80
2022-09-02T19:21:51.773Z,20.73
2022-09-02T19:24:26.014Z,20.63
2022-09-02T19:26:57.721Z,20.60
2022-09-02T19:29:25.521Z,20.55
2022-09-02T19:31:54.559Z,20.50
2022-09-02T19:34:22.069Z,20.38
2022-09-02T19:36:49.881Z,20.33
2022-09-02T19:39:16.805Z,20.29
2022-09-02T19:41:43.562Z,20.20
2022-09-02T19:44:12.558Z,20.13
2022-09-02T19:47:20.948Z,20.06
2022-09-02T19:49:28.398Z,20.03
2022-09-02T19:51:56.081Z,20.00
2022-09-02T19:54:23.227Z,19.97
2022-09-02T19:56:50.076Z,19.92
2022-09-02T19:59:17.118Z,19.93
2022-09-02T20:01:43.904Z,19.92
2022-09-02T20:04:11.637Z,19.91
2022-09-02T20:06:38.476Z,19.83
2022-09-02T20:09:06.242Z,19.83
2022-09-02T20:11:34.213Z,19.84
2022-09-02T20:14:04.354Z,19.84
2022-09-02T20:16:32.947Z,19.83
2022-09-02T20:18:59.771Z,19.80
2022-09-02T20:21:31.268Z,19.76
2022-09-02T20:24:08.978Z,19.72
2022-09-02T20:26:51.394Z,19.74
2022-09-02T20:29:31.940Z,19.75
2022-09-02T20:32:18.859Z,19.70
2022-09-02T20:35:03.979Z,19.65
2022-09-02T20:37:33.488Z,19.58
2022-09-02T20:40:27.020Z,19.54
2022-09-02T20:43:12.635Z,19.43
2022-09-02T20:45:40.926Z,19.34
2022-09-02T20:48:10.437Z,19.25
2022-09-02T20:50:43.308Z,19.18
2022-09-02T20:53:36.042Z,19.12
2022-09-02T20:56:12.167Z,19.12
2022-09-02T20:59:00.291Z,19.13
2022-09-02T21:01:35.653Z,19.06
2022-09-02T21:04:12.946Z,19.06
2022-09-02T21:06:51.213Z,18.91
2022-09-02T21:09:27.263Z,18.90
2022-09-02T21:11:58.614Z,18.92
2022-09-02T21:14:28.519Z,18.94
2022-09-02T21:17:05.858Z,18.92
2022-09-02T21:19:39.454Z,18.89
2022-09-02T21:22:29.070Z,18.90
2022-09-02T21:25:22.126Z,18.96
2022-09-02T21:28:06.265Z,18.99
2022-09-02T21:30:38.346Z,18.90
2022-09-02T21:33:09.199Z,18.84
2022-09-02T21:35:45.203Z,18.87
2022-09-02T21:38:27.599Z,18.86
2022-09-02T21:41:03.878Z,18.83
2022-09-02T21:43:41.105Z,18.81
2022-09-02T21:46:07.887Z,18.79
2022-09-02T21:48:57.326Z,18.81
2022-09-02T21:51:37.149Z,18.77
2022-09-02T21:54:13.191Z,18.72
2022-09-02T21:56:49.000Z,18.67
2022-09-02T21:59:45.145Z,18.67
2022-09-02T22:02:33.455Z,18.68
2022-09-02T22:05:06.045Z,18.68
2022-09-02T22:07:39.247Z,18.67
2022-09-02T22:10:28.937Z,18.67
2022-09-02T22:13:03.131Z,18.65
2022-09-02T22:15:59.199Z,18.62
2022-09-02T22:19:00.348Z,18.61
2022-09-02T22:21:39.650Z,18.58
2022-09-02T22:24:06.837Z,18.58
2022-09-02T22:26:43.799Z,18.58
2022-09-02T22:29:17.301Z,18.62
2022-09-02T22:31:45.280Z,18.63
2022-09-02T22:34:16.135Z,18.64
2022-09-02T22:37:00.149Z,18.66
2022-09-02T22:39:34.384Z,18.68
2022-09-02T22:42:17.806Z,18.72
2022-09-02T22:45:07.957Z,18.76
2022-09-02T22:47:54.965Z,18.77
2022-09-02T22:50:45.375Z,18.77
2022-09-02T22:53:12.962Z,18.87
2022-09-02T22:55:46.372Z,18.82
2022-09-02T22:58:48.017Z,18.78
2022-09-02T23:01:32.579Z,18.77
2022-09-02T23:04:02.435Z,18.75
2022-09-02T23:06:31.201Z,18.77
2022-09-02T23:09:11.570Z,18.80
2022-09-02T23:11:41.250Z,18.82
2022-09-02T23:14:29.598Z,18.76
2022-09-02T23:17:40.738Z,18.66
2022-09-02T23:20:27.646Z,18.69
2022-09-02T23:23:05.963Z,18.73
2022-09-02T23:25:37.839Z,18.77
2022-09-02T23:28:14.856Z,18.80
2022-09-02T23:30:49.076Z,18.82
2022-09-02T23:33:31.950Z,18.84
2022-09-02T23:36:13.870Z,18.87
2022-09-02T23:38:44.974Z,18.89
2022-09-02T23:41:12.547Z,18.86
2022-09-02T23:43:41.885Z,18.84
2022-09-02T23:46:14.732Z,18.87
2022-09-02T23:48:44.171Z,18.86
2022-09-02T23:51:48.404Z,18.71
2022-09-02T23:54:41.401Z,18.58
2022-09-02T23:57:27.314Z,18.52
